Time;durP1;ratioP1;P1;durP2;ratioP2;P2;SDS_P1;SDS_P2;PMS_P1;PMS_P2;Temp;Humidity;BMP_temperature;BMP_pressure;BME280_temperature;BME280_humidity;BME280_pressure;Samples;Min_cycle;Max_cycle;Signal;HPM_P1;HPM_P2
2022/03/02 00:01:15;;;;;;;95.05;70.15;;;27.10;99.90;;;;;;5074314;28;20036;-63
2022/03/02 00:03:43;;;;;;;115.05;77.22;;;27.20;99.90;;;;;;5074539;28;20071;-62
2022/03/02 00:06:09;;;;;;;136.30;91.07;;;27.20;99.90;;;;;;5075085;28;20025;-62
2022/03/02 00:08:37;;;;;;;116.60;68.85;;;27.20;99.90;;;;;;5060949;28;20024;-61
2022/03/02 00:11:04;;;;;;;116.50;68.45;;;27.30;99.90;;;;;;5073026;28;20491;-62
2022/03/02 00:13:31;;;;;;;110.22;59.90;;;27.30;99.90;;;;;;5074533;28;20481;-62
2022/03/02 00:15:58;;;;;;;71.95;44.60;;;27.40;99.90;;;;;;5074793;28;20473;-62
2022/03/02 00:18:25;;;;;;;59.33;40.10;;;27.50;99.90;;;;;;5074636;28;20051;-62
2022/03/02 00:20:51;;;;;;;59.53;38.75;;;27.60;99.90;;;;;;5074603;28;20032;-62
2022/03/02 00:23:18;;;;;;;53.65;30.27;;;27.70;99.90;;;;;;5074972;28;20028;-62
2022/03/02 00:25:45;;;;;;;38.90;26.65;;;27.70;99.90;;;;;;5074703;28;20032;-61
2022/03/02 00:28:11;;;;;;;37.63;27.23;;;27.80;99.90;;;;;;5074793;28;20091;-61
2022/03/02 00:30:38;;;;;;;50.25;31.27;;;27.90;99.90;;;;;;5073745;28;20028;-61
2022/03/02 00:33:05;;;;;;;45.05;30.55;;;27.90;99.90;;;;;;5069603;28;20017;-62
2022/03/02 00:35:32;;;;;;;50.78;33.45;;;27.90;99.90;;;;;;5054513;28;20028;-61
2022/03/02 00:37:58;;;;;;;58.42;35.72;;;27.90;99.90;;;;;;5054535;28;20385;-61
2022/03/02 00:40:25;;;;;;;64.18;42.00;;;27.90;99.90;;;;;;5060486;28;20028;-62
2022/03/02 00:42:52;;;;;;;50.67;35.90;;;27.90;99.90;;;;;;5073990;28;20024;-61
2022/03/02 00:45:19;;;;;;;44.85;30.33;;;28.00;99.90;;;;;;5073421;28;20031;-62
2022/03/02 00:47:46;;;;;;;42.00;27.80;;;28.10;99.90;;;;;;5074018;28;20065;-62
2022/03/02 00:50:13;;;;;;;46.25;30.15;;;28.10;99.90;;;;;;5073763;28;20039;-62
2022/03/02 00:52:41;;;;;;;48.28;32.38;;;28.20;99.90;;;;;;5074168;28;20032;-62
2022/03/02 00:55:08;;;;;;;45.40;29.63;;;28.20;99.90;;;;;;5073334;28;20024;-62
2022/03/02 00:57:35;;;;;;;41.95;30.02;;;28.30;99.90;;;;;;5073985;28;20028;-62
2022/03/02 01:00:03;;;;;;;43.40;27.13;;;28.40;99.90;;;;;;5074007;28;20115;-63
2022/03/02 01:02:30;;;;;;;39.28;26.63;;;28.50;99.90;;;;;;5074185;28;20107;-63
2022/03/02 01:04:56;;;;;;;41.00;25.48;;;28.50;99.90;;;;;;5073971;28;20104;-61
2022/03/02 01:07:23;;;;;;;28.70;20.60;;;28.40;99.90;;;;;;5073431;28;20079;-63
2022/03/02 01:09:50;;;;;;;57.45;45.25;;;28.40;99.90;;;;;;5074514;28;20157;-62
2022/03/02 01:12:17;;;;;;;49.72;31.73;;;28.40;99.90;;;;;;5073878;28;20036;-62
2022/03/02 01:14:43;;;;;;;42.58;30.77;;;28.50;99.90;;;;;;5073850;28;20034;-62
2022/03/02 01:17:10;;;;;;;26.88;16.33;;;28.50;99.90;;;;;;5073641;28;20048;-62
2022/03/02 01:19:39;;;;;;;40.97;28.75;;;28.40;99.90;;;;;;5073035;28;20066;-62
2022/03/02 01:22:06;;;;;;;27.05;19.30;;;28.50;99.90;;;;;;5073335;28;20059;-62
2022/03/02 01:24:33;;;;;;;34.72;18.90;;;28.50;99.90;;;;;;5072398;28;20534;-61
2022/03/02 01:27:03;;;;;;;28.60;19.80;;;28.50;99.90;;;;;;5072942;28;20028;-63
2022/03/02 01:29:31;;;;;;;41.72;26.05;;;28.50;99.90;;;;;;5072870;28;20036;-63
2022/03/02 01:31:58;;;;;;;48.08;30.75;;;28.50;99.90;;;;;;5072798;28;20060;-62
2022/03/02 01:34:25;;;;;;;38.25;25.75;;;28.60;99.90;;;;;;5073296;28;20110;-64
2022/03/02 01:36:51;;;;;;;36.90;21.98;;;28.50;99.90;;;;;;5073241;28;20031;-61
2022/03/02 01:39:18;;;;;;;34.40;22.60;;;28.40;99.90;;;;;;5073168;28;20025;-60
2022/03/02 01:41:45;;;;;;;87.47;58.17;;;28.50;99.90;;;;;;5073808;28;20205;-61
2022/03/02 01:44:12;;;;;;;28.35;20.00;;;28.70;99.90;;;;;;5073510;28;20028;-61
2022/03/02 01:46:39;;;;;;;50.60;32.70;;;28.80;99.90;;;;;;5074744;28;20043;-60
2022/03/02 01:49:06;;;;;;;53.47;31.85;;;28.70;99.90;;;;;;5073634;28;20025;-61
2022/03/02 01:51:33;;;;;;;49.60;34.10;;;28.70;99.90;;;;;;5073045;28;20079;-61
2022/03/02 01:54:00;;;;;;;60.10;38.90;;;28.80;99.90;;;;;;5073029;28;20024;-59
2022/03/02 01:56:27;;;;;;;49.50;31.35;;;28.90;99.90;;;;;;5073590;28;20040;-61
2022/03/02 01:58:54;;;;;;;41.28;28.02;;;29.00;99.90;;;;;;5073515;28;20024;-61
2022/03/02 02:01:21;;;;;;;31.08;20.67;;;29.10;99.90;;;;;;5072684;28;20032;-59
2022/03/02 02:03:48;;;;;;;30.02;16.08;;;29.10;99.90;;;;;;5072808;28;20034;-60
2022/03/02 02:06:15;;;;;;;22.17;16.65;;;29.10;99.90;;;;;;5063999;28;20028;-60
2022/03/02 02:08:42;;;;;;;40.88;25.75;;;29.20;99.90;;;;;;5070874;28;20445;-60
2022/03/02 02:11:11;;;;;;;31.85;21.40;;;29.30;99.90;;;;;;5061988;28;20039;-61
2022/03/02 02:13:38;;;;;;;16.38;11.90;;;29.30;99.90;;;;;;5067131;28;20477;-61
2022/03/02 02:16:06;;;;;;;20.40;12.48;;;29.40;99.90;;;;;;5087113;23;20057;-58
2022/03/02 02:18:33;;;;;;;16.63;11.38;;;29.50;99.90;;;;;;5072639;28;20063;-59
2022/03/02 02:21:05;;;;;;;18.38;10.68;;;29.50;99.90;;;;;;5072769;28;20020;-60
2022/03/02 02:23:32;;;;;;;14.85;10.05;;;29.70;99.90;;;;;;5073020;28;20534;-60
2022/03/02 02:25:59;;;;;;;16.70;9.85;;;29.70;99.90;;;;;;5073502;28;20040;-60
2022/03/02 02:28:28;;;;;;;23.52;13.38;;;29.70;99.90;;;;;;5072983;28;20023;-62
2022/03/02 02:30:56;;;;;;;22.23;12.32;;;29.80;99.90;;;;;;5072874;28;20043;-62
2022/03/02 02:33:24;;;;;;;18.17;11.07;;;29.70;99.90;;;;;;5072773;28;20025;-58
2022/03/02 02:35:50;;;;;;;20.27;12.50;;;29.50;99.90;;;;;;5072752;28;20531;-60
2022/03/02 02:38:18;;;;;;;20.13;11.98;;;29.50;99.90;;;;;;5072070;28;20070;-62
2022/03/02 02:40:45;;;;;;;16.65;11.23;;;29.50;99.90;;;;;;5067162;28;20107;-60
2022/03/02 02:43:12;;;;;;;15.48;11.93;;;29.40;99.90;;;;;;5072544;28;20075;-60
2022/03/02 02:45:39;;;;;;;18.52;13.10;;;29.40;99.90;;;;;;5072464;28;20051;-60
2022/03/02 02:48:05;;;;;;;17.58;12.18;;;29.40;99.90;;;;;;5069410;28;20028;-60
2022/03/02 02:50:34;;;;;;;19.52;11.88;;;29.50;99.90;;;;;;5072460;28;20025;-58
2022/03/02 02:53:03;;;;;;;15.32;10.07;;;29.60;99.90;;;;;;5072215;28;20389;-62
2022/03/02 02:55:31;;;;;;;17.50;10.98;;;29.60;99.90;;;;;;5067578;28;20090;-59
2022/03/02 02:57:59;;;;;;;22.88;11.88;;;29.60;99.90;;;;;;5073916;28;20394;-60
2022/03/02 03:00:31;;;;;;;50.88;36.60;;;29.70;99.90;;;;;;5067381;28;20033;-57
2022/03/02 03:03:00;;;;;;;86.50;56.55;;;29.80;99.90;;;;;;5076527;28;20183;-60
2022/03/02 03:05:29;;;;;;;27.75;18.17;;;29.80;99.90;;;;;;5072300;28;20032;-60
2022/03/02 03:07:58;;;;;;;45.35;31.52;;;29.90;99.90;;;;;;5072980;28;20473;-59
2022/03/02 03:10:27;;;;;;;24.13;17.25;;;29.80;99.90;;;;;;5070403;28;20819;-59
2022/03/02 03:12:54;;;;;;;22.55;13.05;;;29.80;99.90;;;;;;5069871;28;20115;-61
2022/03/02 03:15:22;;;;;;;20.55;13.27;;;29.90;99.90;;;;;;5070706;28;20068;-60
2022/03/02 03:17:49;;;;;;;18.88;12.02;;;30.10;99.90;;;;;;5073294;28;20273;-60
2022/03/02 03:20:24;;;;;;;19.35;12.23;;;30.10;99.90;;;;;;5068583;28;20146;-61
2022/03/02 03:22:55;;;;;;;17.10;10.45;;;30.10;99.90;;;;;;5068772;28;20523;-59
2022/03/02 03:25:24;;;;;;;19.65;11.27;;;30.10;99.90;;;;;;5069560;28;20028;-60
2022/03/02 03:27:51;;;;;;;17.83;10.57;;;30.10;99.90;;;;;;5066723;28;20029;-58
2022/03/02 03:30:20;;;;;;;20.73;11.80;;;30.00;99.90;;;;;;5068607;28;20075;-60
2022/03/02 03:32:48;;;;;;;16.65;11.30;;;30.10;99.90;;;;;;5069348;28;20048;-57
2022/03/02 03:35:16;;;;;;;18.17;11.20;;;30.20;99.90;;;;;;5071087;28;20082;-60
2022/03/02 03:37:43;;;;;;;24.83;11.52;;;30.30;99.90;;;;;;5067306;28;20107;-61
2022/03/02 03:40:13;;;;;;;19.55;11.02;;;30.40;99.90;;;;;;5067745;28;20060;-61
2022/03/02 03:42:40;;;;;;;19.13;12.13;;;30.40;99.90;;;;;;5068379;28;20481;-61
2022/03/02 03:45:09;;;;;;;17.10;11.20;;;30.40;99.90;;;;;;5067658;28;20523;-60
2022/03/02 03:47:36;;;;;;;13.13;9.35;;;30.40;99.90;;;;;;5064724;28;20025;-62
2022/03/02 03:50:03;;;;;;;18.85;9.65;;;30.60;99.90;;;;;;5066699;28;20185;-61
2022/03/02 03:52:30;;;;;;;18.05;11.98;;;30.60;99.90;;;;;;5068011;28;20025;-61
2022/03/02 03:54:56;;;;;;;19.40;11.57;;;30.60;99.90;;;;;;5063185;28;20039;-62
2022/03/02 03:57:23;;;;;;;20.45;11.45;;;30.60;99.90;;;;;;5064630;28;20043;-61
2022/03/02 03:59:50;;;;;;;15.43;10.00;;;30.60;99.90;;;;;;5067363;28;20025;-61
2022/03/02 04:02:17;;;;;;;17.52;9.40;;;30.60;99.90;;;;;;5069093;28;20087;-60
2022/03/02 04:04:43;;;;;;;15.80;9.45;;;30.60;99.90;;;;;;5060106;28;20105;-62
2022/03/02 04:07:10;;;;;;;16.25;10.85;;;30.60;99.90;;;;;;5064196;28;20480;-62
2022/03/02 04:09:37;;;;;;;16.90;11.77;;;30.70;99.90;;;;;;5065772;28;20107;-60
2022/03/02 04:12:04;;;;;;;20.20;12.32;;;30.80;99.90;;;;;;5064615;28;20040;-61
2022/03/02 04:14:30;;;;;;;17.90;10.30;;;30.80;99.90;;;;;;5064194;28;20013;-61
2022/03/02 04:16:57;;;;;;;20.33;11.73;;;30.90;99.90;;;;;;5068588;28;20127;-60
2022/03/02 04:19:24;;;;;;;16.38;10.20;;;31.00;99.90;;;;;;5069986;28;20020;-60
2022/03/02 04:21:50;;;;;;;15.93;9.63;;;31.00;99.90;;;;;;5068003;28;20029;-60
2022/03/02 04:24:17;;;;;;;13.80;9.70;;;31.00;99.90;;;;;;5067352;28;20032;-60
2022/03/02 04:26:44;;;;;;;18.05;10.43;;;30.90;99.90;;;;;;5062870;28;20025;-60
2022/03/02 04:29:11;;;;;;;18.08;10.13;;;30.90;99.90;;;;;;5060041;28;20024;-57
2022/03/02 04:31:39;;;;;;;22.88;15.52;;;31.00;99.90;;;;;;5069902;28;20159;-61
2022/03/02 04:34:06;;;;;;;66.45;48.78;;;31.10;99.90;;;;;;5071227;28;20048;-60
2022/03/02 04:36:32;;;;;;;30.33;17.73;;;31.20;99.90;;;;;;5068887;28;20032;-58
2022/03/02 04:38:59;;;;;;;80.70;57.75;;;31.20;99.90;;;;;;5068203;28;20036;-59
2022/03/02 04:41:26;;;;;;;45.67;36.15;;;31.20;99.90;;;;;;5068649;28;20108;-59
2022/03/02 04:43:53;;;;;;;41.85;29.40;;;31.20;99.90;;;;;;5069929;28;20067;-59
2022/03/02 04:46:20;;;;;;;21.45;14.95;;;31.20;99.90;;;;;;5066789;28;20028;-59
2022/03/02 04:48:47;;;;;;;19.35;10.15;;;31.30;99.90;;;;;;5070254;28;20064;-59
2022/03/02 04:51:13;;;;;;;19.38;10.52;;;31.30;99.90;;;;;;5069331;28;20056;-60
2022/03/02 04:53:40;;;;;;;17.23;11.35;;;31.30;99.90;;;;;;5066487;28;20055;-57
2022/03/02 04:56:08;;;;;;;15.18;10.38;;;31.30;99.90;;;;;;5063174;28;20029;-59
2022/03/02 04:58:35;;;;;;;16.25;10.85;;;31.30;99.90;;;;;;5069705;28;20021;-60
2022/03/02 05:01:01;;;;;;;20.88;11.48;;;31.30;99.90;;;;;;5063551;28;20537;-60
2022/03/02 05:03:28;;;;;;;12.45;8.25;;;31.40;99.90;;;;;;5063887;28;20048;-58
2022/03/02 05:05:55;;;;;;;14.73;8.10;;;31.50;99.90;;;;;;5068312;28;20028;-60
2022/03/02 05:08:21;;;;;;;19.08;9.63;;;31.50;99.70;;;;;;5064615;28;20113;-59
2022/03/02 05:10:48;;;;;;;15.52;8.65;;;31.60;99.50;;;;;;5066096;28;20094;-59
2022/03/02 05:13:15;;;;;;;12.82;8.13;;;31.60;99.30;;;;;;5059207;28;20028;-59
2022/03/02 05:15:41;;;;;;;11.38;7.60;;;31.60;99.30;;;;;;5058664;28;20051;-60
2022/03/02 05:18:08;;;;;;;15.98;7.75;;;31.60;98.80;;;;;;5063030;28;20072;-64
2022/03/02 05:20:35;;;;;;;19.83;9.63;;;31.60;98.80;;;;;;5061427;28;20055;-63
2022/03/02 05:23:02;;;;;;;16.05;8.95;;;31.70;99.40;;;;;;5053517;28;20032;-59
2022/03/02 05:25:29;;;;;;;10.60;7.22;;;31.80;98.00;;;;;;5059850;28;20036;-59
2022/03/02 05:27:56;;;;;;;14.50;7.45;;;31.80;97.40;;;;;;5068914;28;20032;-59
2022/03/02 05:30:22;;;;;;;15.45;8.52;;;31.90;97.30;;;;;;5068773;28;20409;-60
2022/03/02 05:32:49;;;;;;;11.77;7.32;;;31.90;97.10;;;;;;5060192;28;20419;-61
2022/03/02 05:35:16;;;;;;;14.57;8.68;;;32.00;97.20;;;;;;5060436;28;20025;-61
2022/03/02 05:37:43;;;;;;;16.58;10.30;;;32.00;96.30;;;;;;5063799;28;20074;-61
2022/03/02 05:40:17;;;;;;;18.90;11.15;;;32.10;95.90;;;;;;5059334;28;20078;-57
2022/03/02 05:42:44;;;;;;;12.05;8.65;;;32.10;97.20;;;;;;5063278;28;20017;-59
2022/03/02 05:45:11;;;;;;;12.32;8.05;;;32.10;96.50;;;;;;5066635;28;20021;-59
2022/03/02 05:47:39;;;;;;;13.73;7.55;;;32.00;95.70;;;;;;5061752;28;20048;-60
2022/03/02 05:50:07;;;;;;;19.27;8.32;;;32.00;95.80;;;;;;5073586;23;20021;-60
2022/03/02 05:52:34;;;;;;;11.85;6.80;;;32.00;95.70;;;;;;5071072;28;20037;-59
2022/03/02 05:55:01;;;;;;;14.32;8.00;;;32.20;95.60;;;;;;5073068;28;20107;-59
2022/03/02 05:57:27;;;;;;;14.00;6.60;;;32.20;95.60;;;;;;5072448;28;20060;-59
2022/03/02 05:59:54;;;;;;;11.82;6.93;;;32.20;94.30;;;;;;5072705;28;20035;-57
2022/03/02 06:02:21;;;;;;;18.13;8.55;;;32.30;94.60;;;;;;5071583;28;20090;-59
2022/03/02 06:04:48;;;;;;;15.00;8.13;;;32.30;94.40;;;;;;5072664;28;20335;-60
2022/03/02 06:07:15;;;;;;;15.02;6.85;;;32.30;95.30;;;;;;5070146;28;20461;-59
2022/03/02 06:09:42;;;;;;;15.88;6.60;;;32.40;94.50;;;;;;5072708;28;20033;-60
2022/03/02 06:12:09;;;;;;;9.90;6.50;;;32.50;94.50;;;;;;5072550;28;20553;-61
2022/03/02 06:14:36;;;;;;;9.73;6.60;;;32.60;92.80;;;;;;5072471;28;20431;-58
2022/03/02 06:17:03;;;;;;;15.90;6.65;;;32.60;91.60;;;;;;5071533;28;20052;-60
2022/03/02 06:19:30;;;;;;;12.75;6.75;;;32.60;90.90;;;;;;5072713;28;20475;-57
2022/03/02 06:21:59;;;;;;;16.52;6.60;;;32.60;90.90;;;;;;5072733;28;20085;-61
2022/03/02 06:24:26;;;;;;;17.20;6.40;;;32.70;92.00;;;;;;5072459;28;20028;-60
2022/03/02 06:26:52;;;;;;;8.60;6.28;;;32.80;91.50;;;;;;5070036;28;20033;-60
2022/03/02 06:29:19;;;;;;;13.55;7.10;;;32.80;92.40;;;;;;5073730;28;20377;-60
2022/03/02 06:31:46;;;;;;;14.80;7.35;;;32.90;92.20;;;;;;5076118;28;20028;-60
2022/03/02 06:34:12;;;;;;;12.95;6.10;;;32.90;91.70;;;;;;5076250;28;20158;-60
2022/03/02 06:36:39;;;;;;;11.18;6.72;;;32.90;91.70;;;;;;5072529;28;20044;-61
2022/03/02 06:39:06;;;;;;;12.95;6.38;;;33.00;91.90;;;;;;5076304;28;20106;-61
2022/03/02 06:41:55;;;;;;;10.48;6.65;;;33.10;91.70;;;;;;5076098;28;20468;-61
2022/03/02 06:44:43;;;;;;;13.27;8.02;;;33.20;90.90;;;;;;5074481;28;20059;-62
2022/03/02 06:47:13;;;;;;;13.63;7.72;;;33.10;89.70;;;;;;5074947;28;20032;-61
2022/03/02 06:49:50;;;;;;;15.75;7.22;;;33.10;90.10;;;;;;5075498;28;20025;-61
2022/03/02 06:52:21;;;;;;;14.38;8.88;;;33.00;88.80;;;;;;5073011;28;20054;-60
2022/03/02 06:54:49;;;;;;;14.60;7.30;;;33.00;90.40;;;;;;5071250;28;20521;-60
2022/03/02 06:57:26;;;;;;;12.32;7.28;;;32.90;90.90;;;;;;5079785;28;20052;-60
2022/03/02 06:59:57;;;;;;;14.13;6.47;;;32.80;90.90;;;;;;5075714;28;20078;-60
2022/03/02 07:02:49;;;;;;;10.80;7.28;;;32.80;90.10;;;;;;5075713;28;20025;-60
2022/03/02 07:05:17;;;;;;;10.35;7.35;;;32.90;90.50;;;;;;5073662;28;20025;-60
2022/03/02 07:07:46;;;;;;;13.55;7.35;;;32.90;89.40;;;;;;5075968;28;20111;-61
2022/03/02 07:10:13;;;;;;;14.77;7.45;;;33.00;90.30;;;;;;5073204;28;20020;-60
2022/03/02 07:12:40;;;;;;;11.38;7.43;;;33.00;90.10;;;;;;5076658;28;20055;-58
2022/03/02 07:15:08;;;;;;;19.42;7.72;;;33.00;89.20;;;;;;5075704;28;20095;-61
2022/03/02 07:17:36;;;;;;;11.43;6.43;;;33.10;88.30;;;;;;5076205;28;20024;-60
2022/03/02 07:20:06;;;;;;;13.25;6.75;;;33.10;87.00;;;;;;5073320;28;20107;-61
2022/03/02 07:22:36;;;;;;;9.10;6.18;;;33.00;87.00;;;;;;5073634;28;20024;-59
2022/03/02 07:25:08;;;;;;;11.13;6.90;;;33.00;84.40;;;;;;5061256;28;20125;-60
2022/03/02 07:27:40;;;;;;;13.23;9.90;;;33.00;84.40;;;;;;5076138;28;20028;-59
2022/03/02 07:30:08;;;;;;;27.50;18.45;;;33.00;84.00;;;;;;5076028;28;20055;-60
2022/03/02 07:32:37;;;;;;;12.60;8.40;;;33.00;84.00;;;;;;5076125;28;20043;-60
2022/03/02 07:35:06;;;;;;;39.05;28.20;;;33.00;85.80;;;;;;5076076;28;20461;-61
2022/03/02 07:37:33;;;;;;;10.50;6.50;;;33.00;85.70;;;;;;5075850;28;20029;-60
2022/03/02 07:40:01;;;;;;;14.43;7.57;;;33.10;85.20;;;;;;5075497;28;20028;-61
2022/03/02 07:42:28;;;;;;;14.85;7.80;;;33.10;83.80;;;;;;5075881;28;20024;-62
2022/03/02 07:44:55;;;;;;;19.85;7.22;;;33.10;83.60;;;;;;5076000;28;20427;-61
2022/03/02 07:47:22;;;;;;;14.85;7.07;;;33.20;83.80;;;;;;5074362;28;20021;-61
2022/03/02 07:49:49;;;;;;;9.60;7.03;;;33.30;85.90;;;;;;5074185;28;20428;-61
2022/03/02 07:52:17;;;;;;;11.43;7.70;;;33.20;85.50;;;;;;5074067;28;20508;-61
2022/03/02 07:54:46;;;;;;;10.60;6.53;;;33.20;84.60;;;;;;5075041;28;20033;-61
2022/03/02 07:57:15;;;;;;;17.67;12.40;;;33.20;84.70;;;;;;5074903;28;20370;-61
2022/03/02 07:59:43;;;;;;;9.10;6.95;;;33.30;84.20;;;;;;5075498;28;20101;-61
2022/03/02 08:02:13;;;;;;;15.55;7.25;;;33.40;82.60;;;;;;5075617;28;20103;-63
2022/03/02 08:04:41;;;;;;;9.43;6.35;;;33.40;83.50;;;;;;5061468;28;20290;-61
2022/03/02 08:07:10;;;;;;;8.48;6.75;;;33.40;81.50;;;;;;5074795;28;20037;-62
2022/03/02 08:09:37;;;;;;;14.73;6.32;;;33.40;80.70;;;;;;5074570;28;20104;-59
2022/03/02 08:12:07;;;;;;;28.42;22.70;;;33.50;80.00;;;;;;5075104;28;20046;-61
2022/03/02 08:14:34;;;;;;;88.45;69.50;;;33.60;81.90;;;;;;5075139;28;20024;-61
2022/03/02 08:17:02;;;;;;;28.88;18.58;;;33.60;80.90;;;;;;5074922;28;20028;-61
2022/03/02 08:19:30;;;;;;;12.00;8.50;;;33.60;80.20;;;;;;5075378;28;20480;-61
2022/03/02 08:22:02;;;;;;;11.82;7.40;;;33.60;81.70;;;;;;5074114;28;20474;-59
2022/03/02 08:24:30;;;;;;;16.85;8.63;;;33.60;80.20;;;;;;5074833;28;20032;-61
2022/03/02 08:27:00;;;;;;;26.65;19.40;;;33.70;81.10;;;;;;5075030;28;20032;-62
2022/03/02 08:29:30;;;;;;;19.88;14.38;;;33.70;79.80;;;;;;5074487;28;20082;-60
2022/03/02 08:32:03;;;;;;;20.90;16.25;;;33.80;80.00;;;;;;5074694;28;20025;-60
2022/03/02 08:34:31;;;;;;;17.40;10.10;;;33.90;79.70;;;;;;5074063;28;20484;-60
2022/03/02 08:36:59;;;;;;;35.63;22.85;;;33.90;79.60;;;;;;5073866;28;20103;-60
2022/03/02 08:39:27;;;;;;;16.85;9.88;;;33.90;77.50;;;;;;5074183;28;20020;-59
2022/03/02 08:41:54;;;;;;;13.15;8.75;;;34.00;75.20;;;;;;5074196;28;20042;-60
2022/03/02 08:44:22;;;;;;;11.30;7.88;;;33.90;77.30;;;;;;5073971;28;20085;-60
2022/03/02 08:46:49;;;;;;;13.10;8.13;;;34.00;77.40;;;;;;5074147;28;20037;-61
2022/03/02 08:49:18;;;;;;;12.68;7.15;;;34.00;77.40;;;;;;5073867;28;20139;-60
2022/03/02 08:51:45;;;;;;;10.45;7.25;;;34.00;76.00;;;;;;5072971;28;20048;-61
2022/03/02 08:54:13;;;;;;;10.57;7.97;;;33.90;78.10;;;;;;5073562;28;20024;-60
2022/03/02 08:56:41;;;;;;;12.55;10.30;;;34.00;76.00;;;;;;5073185;28;20035;-58
2022/03/02 08:59:12;;;;;;;13.50;8.15;;;34.00;75.60;;;;;;5073826;28;20028;-59
2022/03/02 09:01:41;;;;;;;16.17;11.80;;;33.90;74.70;;;;;;5074181;28;20029;-62
2022/03/02 09:04:12;;;;;;;22.00;14.10;;;34.00;75.80;;;;;;5071350;28;20400;-60
2022/03/02 09:06:39;;;;;;;13.32;8.60;;;34.00;74.10;;;;;;5074358;28;20144;-60
2022/03/02 09:09:06;;;;;;;14.52;7.70;;;34.00;74.20;;;;;;5073214;28;20040;-60
2022/03/02 09:11:33;;;;;;;16.38;7.65;;;34.00;73.50;;;;;;5072564;28;20028;-61
2022/03/02 09:14:01;;;;;;;11.07;7.18;;;34.00;75.00;;;;;;5073991;28;20028;-60
2022/03/02 09:16:30;;;;;;;12.57;7.13;;;34.00;74.80;;;;;;5073919;28;20047;-62
2022/03/02 09:18:57;;;;;;;12.45;7.80;;;34.00;75.30;;;;;;5074247;28;20104;-59
2022/03/02 09:21:26;;;;;;;12.07;7.43;;;34.10;74.80;;;;;;5067539;28;20036;-60
2022/03/02 09:23:55;;;;;;;9.65;7.10;;;34.10;74.90;;;;;;5070477;28;20020;-60
2022/03/02 09:26:22;;;;;;;13.82;7.28;;;34.00;75.00;;;;;;5073153;28;20036;-61
2022/03/02 09:28:52;;;;;;;10.88;7.22;;;34.10;75.10;;;;;;5073213;28;20476;-60
2022/03/02 09:31:21;;;;;;;15.57;8.07;;;34.10;74.10;;;;;;5072521;28;20111;-61
2022/03/02 09:33:54;;;;;;;15.70;8.38;;;34.10;74.80;;;;;;5073215;28;20020;-61
2022/03/02 09:36:23;;;;;;;13.57;7.13;;;34.10;74.60;;;;;;5069863;28;20028;-61
2022/03/02 09:38:52;;;;;;;15.43;7.70;;;34.10;74.50;;;;;;5062078;28;20033;-61
2022/03/02 09:41:34;;;;;;;13.95;8.90;;;34.10;74.50;;;;;;5053483;28;20024;-61
2022/03/02 09:44:04;;;;;;;12.45;6.70;;;34.10;72.50;;;;;;5053376;28;20470;-61
2022/03/02 09:46:37;;;;;;;13.90;7.28;;;34.10;73.70;;;;;;5053300;28;20029;-61
2022/03/02 09:49:09;;;;;;;20.92;14.88;;;34.00;74.80;;;;;;5051734;28;20370;-61
2022/03/02 09:51:37;;;;;;;48.45;32.83;;;34.00;74.40;;;;;;5053088;28;20044;-61
2022/03/02 09:54:05;;;;;;;40.42;23.75;;;34.10;74.90;;;;;;5053234;28;20029;-61
2022/03/02 09:56:35;;;;;;;51.80;37.15;;;34.10;74.90;;;;;;5053411;28;20029;-60
2022/03/02 09:59:05;;;;;;;26.88;14.68;;;34.10;74.80;;;;;;5053690;28;20021;-65
2022/03/02 10:01:34;;;;;;;18.35;12.63;;;34.10;74.60;;;;;;5061200;28;20036;-61
2022/03/02 10:04:13;;;;;;;25.00;12.85;;;34.00;72.70;;;;;;5070714;28;20025;-61
2022/03/02 10:06:45;;;;;;;13.60;8.43;;;34.10;73.20;;;;;;5073857;28;20070;-61
2022/03/02 10:09:13;;;;;;;15.80;9.60;;;34.10;73.10;;;;;;5076354;28;20108;-61
2022/03/02 10:11:45;;;;;;;18.38;13.35;;;34.00;73.10;;;;;;5074111;28;20047;-61
2022/03/02 10:14:12;;;;;;;24.38;11.82;;;34.00;73.30;;;;;;5070786;28;20021;-59
2022/03/02 10:16:45;;;;;;;29.92;16.63;;;34.00;74.20;;;;;;5064192;28;20025;-59
2022/03/02 10:19:23;;;;;;;44.83;29.77;;;34.00;74.60;;;;;;5064223;28;20099;-59
2022/03/02 10:22:06;;;;;;;43.42;27.50;;;34.00;73.70;;;;;;5074245;28;20098;-61
2022/03/02 10:24:43;;;;;;;33.65;21.10;;;33.90;74.20;;;;;;5074334;28;20448;-59
2022/03/02 10:27:19;;;;;;;73.80;51.25;;;33.90;73.60;;;;;;5074138;28;20365;-60
2022/03/02 10:30:00;;;;;;;41.42;25.50;;;33.80;73.20;;;;;;5076763;28;20048;-59
2022/03/02 10:32:32;;;;;;;32.05;19.73;;;33.90;73.80;;;;;;5076942;28;20055;-59
2022/03/02 10:35:05;;;;;;;26.50;18.75;;;33.80;74.70;;;;;;5077054;28;20113;-59
2022/03/02 10:37:37;;;;;;;28.95;21.40;;;33.80;74.40;;;;;;5077016;28;20028;-58
2022/03/02 10:40:12;;;;;;;20.45;13.50;;;33.80;74.10;;;;;;5070692;28;20029;-59
2022/03/02 10:42:44;;;;;;;18.33;10.15;;;33.60;80.30;;;;;;5062836;28;20029;-59
2022/03/02 10:45:22;;;;;;;27.60;9.30;;;33.40;84.80;;;;;;5056961;28;20021;-60
2022/03/02 10:48:00;;;;;;;37.55;11.60;;;33.00;86.20;;;;;;5061576;28;20113;-60
2022/03/02 10:50:37;;;;;;;27.55;10.38;;;32.80;88.10;;;;;;5074061;28;20032;-59
2022/03/02 10:53:07;;;;;;;19.40;9.60;;;32.60;89.10;;;;;;5056470;28;20037;-60
2022/03/02 10:55:35;;;;;;;17.48;9.98;;;32.50;89.70;;;;;;5056464;28;20448;-61
2022/03/02 10:58:04;;;;;;;14.73;7.80;;;32.30;90.00;;;;;;5068944;28;20057;-60
2022/03/02 11:00:31;;;;;;;14.43;8.80;;;32.10;90.00;;;;;;5056760;28;20032;-59
2022/03/02 11:02:59;;;;;;;17.70;9.45;;;32.00;90.00;;;;;;5056793;28;20033;-58
2022/03/02 11:05:31;;;;;;;13.18;8.68;;;31.80;90.90;;;;;;5056601;28;20025;-59
2022/03/02 11:07:58;;;;;;;10.25;7.20;;;31.80;90.60;;;;;;5065510;28;20484;-60
2022/03/02 11:10:32;;;;;;;12.70;7.60;;;31.70;90.70;;;;;;5076068;28;20066;-56
2022/03/02 11:13:12;;;;;;;17.67;8.40;;;31.60;91.00;;;;;;5072667;28;20029;-60
2022/03/02 11:15:57;;;;;;;16.95;10.05;;;31.50;91.60;;;;;;5075454;28;20016;-60
2022/03/02 11:18:38;;;;;;;18.98;11.02;;;31.50;91.80;;;;;;5074994;28;20032;-60
2022/03/02 11:21:11;;;;;;;19.63;11.30;;;31.50;91.40;;;;;;5074854;28;20354;-59
2022/03/02 11:23:42;;;;;;;20.20;11.27;;;31.40;91.60;;;;;;5074049;28;20362;-58
2022/03/02 11:26:12;;;;;;;21.38;12.48;;;31.30;91.70;;;;;;5076353;28;20059;-61
2022/03/02 11:28:39;;;;;;;28.38;15.60;;;31.30;91.40;;;;;;5075934;28;20039;-58
2022/03/02 11:31:08;;;;;;;31.55;15.27;;;31.10;92.10;;;;;;5075713;28;20484;-59
2022/03/02 11:33:35;;;;;;;25.38;15.10;;;31.00;92.80;;;;;;5076082;28;20461;-59
2022/03/02 11:36:10;;;;;;;22.27;14.30;;;30.90;92.20;;;;;;5076082;28;20027;-59
2022/03/02 11:38:41;;;;;;;26.40;15.02;;;30.80;92.30;;;;;;5072688;28;20373;-59
2022/03/02 11:41:09;;;;;;;18.10;12.35;;;30.80;93.00;;;;;;5071906;28;20044;-59
2022/03/02 11:43:35;;;;;;;20.48;13.02;;;30.70;92.90;;;;;;5072129;28;20024;-58
2022/03/02 11:46:05;;;;;;;20.98;11.48;;;30.50;93.50;;;;;;5067226;28;20602;-57
2022/03/02 11:48:37;;;;;;;19.17;11.20;;;30.50;93.50;;;;;;5070666;28;20036;-57
2022/03/02 11:51:08;;;;;;;26.05;13.57;;;30.40;94.10;;;;;;5061016;28;20119;-58
2022/03/02 11:53:40;;;;;;;19.05;10.60;;;30.30;94.30;;;;;;5055866;28;20484;-56
2022/03/02 11:56:09;;;;;;;25.10;11.60;;;30.30;94.90;;;;;;5055798;28;20049;-59
2022/03/02 11:58:55;;;;;;;22.45;11.95;;;30.30;94.70;;;;;;5055724;28;20029;-58
2022/03/02 12:01:23;;;;;;;65.63;38.40;;;30.20;95.00;;;;;;5055554;28;20029;-59
2022/03/02 12:04:01;;;;;;;68.63;51.03;;;30.10;95.50;;;;;;5058420;28;20055;-57
2022/03/02 12:06:37;;;;;;;94.82;64.55;;;30.10;95.80;;;;;;5075136;28;20526;-58
2022/03/02 12:09:04;;;;;;;122.32;78.82;;;30.00;96.30;;;;;;5074421;28;20041;-58
2022/03/02 12:11:34;;;;;;;176.52;121.70;;;30.00;96.10;;;;;;5074468;28;20498;-60
2022/03/02 12:14:07;;;;;;;38.55;20.05;;;30.00;96.50;;;;;;5074888;28;20021;-62
2022/03/02 12:16:41;;;;;;;19.13;10.63;;;30.00;96.90;;;;;;5074562;28;20021;-62
2022/03/02 12:19:26;;;;;;;16.08;9.05;;;29.90;97.10;;;;;;5072465;28;20481;-59
2022/03/02 12:22:01;;;;;;;22.50;10.30;;;29.90;96.90;;;;;;5073544;28;20020;-59
2022/03/02 12:24:30;;;;;;;20.33;8.98;;;29.80;97.50;;;;;;5072619;28;20056;-59
2022/03/02 12:27:10;;;;;;;20.80;9.27;;;29.70;97.50;;;;;;5074489;28;20081;-60
2022/03/02 12:29:39;;;;;;;15.10;9.45;;;29.70;97.60;;;;;;5071896;28;20186;-57
2022/03/02 12:32:15;;;;;;;17.15;9.85;;;29.60;97.90;;;;;;5072002;28;20036;-59
2022/03/02 12:34:50;;;;;;;18.40;9.55;;;29.60;98.10;;;;;;5070017;28;20029;-60
2022/03/02 12:37:19;;;;;;;18.45;9.23;;;29.60;98.50;;;;;;5065865;28;20264;-61
2022/03/02 12:39:47;;;;;;;26.98;10.18;;;29.60;98.90;;;;;;5074808;28;20020;-58